sensor_id;sensor_type;location;lat;lon;timestamp;P1;durP1;ratioP1;P2;durP2;ratioP2
63008;SDS011;49099;28.428;-16.488;2023-04-10T00:01:08;50.72;;;8.30;;
63008;SDS011;49099;28.428;-16.488;2023-04-10T00:03:36;51.13;;;8.13;;
63008;SDS011;49099;28.428;-16.488;2023-04-10T00:06:03;54.33;;;8.70;;
63008;SDS011;49099;28.428;-16.488;2023-04-10T00:08:31;54.10;;;8.23;;
63008;SDS011;49099;28.428;-16.488;2023-04-10T00:10:58;48.13;;;7.55;;
63008;SDS011;49099;28.428;-16.488;2023-04-10T00:13:25;59.78;;;7.95;;
63008;SDS011;49099;28.428;-16.488;2023-04-10T00:15:52;58.20;;;8.02;;
63008;SDS011;49099;28.428;-16.488;2023-04-10T00:18:19;57.05;;;8.02;;
63008;SDS011;49099;28.428;-16.488;2023-04-10T00:20:46;51.28;;;8.55;;
63008;SDS011;49099;28.428;-16.488;2023-04-10T00:23:14;59.13;;;9.02;;
63008;SDS011;49099;28.428;-16.488;2023-04-10T00:25:41;38.10;;;7.72;;
63008;SDS011;49099;28.428;-16.488;2023-04-10T00:28:08;53.78;;;8.20;;
63008;SDS011;49099;28.428;-16.488;2023-04-10T00:30:35;47.72;;;8.82;;
63008;SDS011;49099;28.428;-16.488;2023-04-10T00:33:02;48.30;;;7.65;;
63008;SDS011;49099;28.428;-16.488;2023-04-10T00:35:29;50.30;;;7.63;;
63008;SDS011;49099;28.428;-16.488;2023-04-10T00:37:57;62.85;;;9.93;;
63008;SDS011;49099;28.428;-16.488;2023-04-10T00:40:24;58.45;;;9.13;;
63008;SDS011;49099;28.428;-16.488;2023-04-10T00:42:52;68.85;;;10.57;;
63008;SDS011;49099;28.428;-16.488;2023-04-10T00:45:19;49.53;;;8.52;;
63008;SDS011;49099;28.428;-16.488;2023-04-10T00:47:46;79.28;;;10.25;;
63008;SDS011;49099;28.428;-16.488;2023-04-10T00:50:13;54.35;;;9.45;;
63008;SDS011;49099;28.428;-16.488;2023-04-10T00:52:41;60.22;;;9.45;;
63008;SDS011;49099;28.428;-16.488;2023-04-10T00:55:08;66.20;;;10.05;;
63008;SDS011;49099;28.428;-16.488;2023-04-10T00:57:36;56.95;;;8.68;;
63008;SDS011;49099;28.428;-16.488;2023-04-10T01:00:04;64.50;;;9.20;;
63008;SDS011;49099;28.428;-16.488;2023-04-10T01:02:32;58.90;;;8.68;;
63008;SDS011;49099;28.428;-16.488;2023-04-10T01:04:59;60.17;;;8.60;;
63008;SDS011;49099;28.428;-16.488;2023-04-10T01:10:35;56.08;;;9.00;;
63008;SDS011;49099;28.428;-16.488;2023-04-10T01:13:22;52.63;;;8.43;;
63008;SDS011;49099;28.428;-16.488;2023-04-10T01:16:04;53.30;;;8.63;;
63008;SDS011;49099;28.428;-16.488;2023-04-10T01:18:45;60.38;;;9.68;;
63008;SDS011;49099;28.428;-16.488;2023-04-10T01:21:18;57.08;;;8.93;;
63008;SDS011;49099;28.428;-16.488;2023-04-10T01:24:00;60.47;;;9.35;;
63008;SDS011;49099;28.428;-16.488;2023-04-10T01:29:40;55.35;;;8.18;;
63008;SDS011;49099;28.428;-16.488;2023-04-10T01:32:16;59.88;;;8.93;;
63008;SDS011;49099;28.428;-16.488;2023-04-10T01:34:48;54.25;;;9.00;;
63008;SDS011;49099;28.428;-16.488;2023-04-10T01:40:13;55.50;;;8.32;;
63008;SDS011;49099;28.428;-16.488;2023-04-10T01:42:46;50.60;;;7.82;;
63008;SDS011;49099;28.428;-16.488;2023-04-10T01:45:17;47.58;;;7.72;;
63008;SDS011;49099;28.428;-16.488;2023-04-10T01:47:47;62.50;;;9.38;;
63008;SDS011;49099;28.428;-16.488;2023-04-10T01:50:15;56.47;;;8.40;;
63008;SDS011;49099;28.428;-16.488;2023-04-10T01:52:43;61.70;;;8.20;;
63008;SDS011;49099;28.428;-16.488;2023-04-10T01:55:12;62.97;;;8.98;;
63008;SDS011;49099;28.428;-16.488;2023-04-10T01:57:41;52.90;;;8.35;;
63008;SDS011;49099;28.428;-16.488;2023-04-10T02:00:08;53.60;;;8.95;;
63008;SDS011;49099;28.428;-16.488;2023-04-10T02:02:35;54.28;;;8.68;;
63008;SDS011;49099;28.428;-16.488;2023-04-10T02:05:03;42.53;;;8.25;;
63008;SDS011;49099;28.428;-16.488;2023-04-10T02:07:53;52.22;;;8.15;;
63008;SDS011;49099;28.428;-16.488;2023-04-10T02:10:33;43.60;;;7.82;;
63008;SDS011;49099;28.428;-16.488;2023-04-10T02:13:10;57.38;;;8.90;;
63008;SDS011;49099;28.428;-16.488;2023-04-10T02:15:41;38.88;;;7.32;;
63008;SDS011;49099;28.428;-16.488;2023-04-10T02:18:13;59.58;;;9.25;;
63008;SDS011;49099;28.428;-16.488;2023-04-10T02:20:42;54.33;;;8.10;;
63008;SDS011;49099;28.428;-16.488;2023-04-10T02:23:10;48.28;;;8.00;;
63008;SDS011;49099;28.428;-16.488;2023-04-10T02:25:38;56.33;;;9.00;;
63008;SDS011;49099;28.428;-16.488;2023-04-10T02:28:05;40.85;;;7.00;;
63008;SDS011;49099;28.428;-16.488;2023-04-10T02:30:33;49.22;;;7.43;;
63008;SDS011;49099;28.428;-16.488;2023-04-10T02:33:01;47.50;;;8.27;;
63008;SDS011;49099;28.428;-16.488;2023-04-10T02:35:28;49.80;;;9.02;;
63008;SDS011;49099;28.428;-16.488;2023-04-10T02:37:56;48.33;;;8.57;;
63008;SDS011;49099;28.428;-16.488;2023-04-10T02:40:23;40.20;;;8.02;;
63008;SDS011;49099;28.428;-16.488;2023-04-10T02:42:50;48.15;;;8.23;;
63008;SDS011;49099;28.428;-16.488;2023-04-10T02:45:17;48.17;;;8.60;;
63008;SDS011;49099;28.428;-16.488;2023-04-10T02:47:44;52.80;;;8.35;;
63008;SDS011;49099;28.428;-16.488;2023-04-10T02:50:12;40.40;;;7.90;;
63008;SDS011;49099;28.428;-16.488;2023-04-10T02:52:39;51.42;;;8.65;;
63008;SDS011;49099;28.428;-16.488;2023-04-10T02:55:07;52.05;;;9.07;;
63008;SDS011;49099;28.428;-16.488;2023-04-10T02:57:35;47.40;;;8.25;;
63008;SDS011;49099;28.428;-16.488;2023-04-10T03:00:02;52.00;;;8.10;;
63008;SDS011;49099;28.428;-16.488;2023-04-10T03:02:30;47.80;;;7.70;;
63008;SDS011;49099;28.428;-16.488;2023-04-10T03:04:59;56.97;;;8.55;;
63008;SDS011;49099;28.428;-16.488;2023-04-10T03:07:28;60.72;;;9.32;;
63008;SDS011;49099;28.428;-16.488;2023-04-10T03:09:55;50.30;;;8.40;;
63008;SDS011;49099;28.428;-16.488;2023-04-10T03:12:22;49.20;;;7.93;;
63008;SDS011;49099;28.428;-16.488;2023-04-10T03:14:49;42.88;;;8.15;;
63008;SDS011;49099;28.428;-16.488;2023-04-10T03:17:16;53.47;;;8.10;;
63008;SDS011;49099;28.428;-16.488;2023-04-10T03:19:43;48.35;;;8.90;;
63008;SDS011;49099;28.428;-16.488;2023-04-10T03:22:10;43.30;;;8.10;;
63008;SDS011;49099;28.428;-16.488;2023-04-10T03:24:37;45.22;;;8.75;;
63008;SDS011;49099;28.428;-16.488;2023-04-10T03:27:06;45.95;;;8.38;;
63008;SDS011;49099;28.428;-16.488;2023-04-10T03:29:33;57.38;;;8.95;;
63008;SDS011;49099;28.428;-16.488;2023-04-10T03:32:00;55.95;;;8.70;;
63008;SDS011;49099;28.428;-16.488;2023-04-10T03:34:28;70.80;;;10.00;;
63008;SDS011;49099;28.428;-16.488;2023-04-10T03:36:55;57.50;;;9.93;;
63008;SDS011;49099;28.428;-16.488;2023-04-10T03:39:22;75.93;;;10.20;;
63008;SDS011;49099;28.428;-16.488;2023-04-10T03:41:50;63.60;;;8.70;;
63008;SDS011;49099;28.428;-16.488;2023-04-10T03:44:17;43.42;;;8.27;;
63008;SDS011;49099;28.428;-16.488;2023-04-10T03:46:44;50.25;;;8.32;;
63008;SDS011;49099;28.428;-16.488;2023-04-10T03:49:12;48.55;;;8.25;;
63008;SDS011;49099;28.428;-16.488;2023-04-10T03:51:39;50.50;;;9.38;;
63008;SDS011;49099;28.428;-16.488;2023-04-10T03:54:06;56.15;;;8.65;;
63008;SDS011;49099;28.428;-16.488;2023-04-10T03:56:33;41.40;;;7.75;;
63008;SDS011;49099;28.428;-16.488;2023-04-10T03:59:01;54.30;;;8.57;;
63008;SDS011;49099;28.428;-16.488;2023-04-10T04:01:28;50.20;;;8.07;;
63008;SDS011;49099;28.428;-16.488;2023-04-10T04:03:56;56.35;;;8.50;;
63008;SDS011;49099;28.428;-16.488;2023-04-10T04:06:24;45.42;;;7.75;;
63008;SDS011;49099;28.428;-16.488;2023-04-10T04:08:52;48.40;;;8.45;;
63008;SDS011;49099;28.428;-16.488;2023-04-10T04:11:19;34.45;;;6.55;;
63008;SDS011;49099;28.428;-16.488;2023-04-10T04:13:46;45.67;;;8.45;;
63008;SDS011;49099;28.428;-16.488;2023-04-10T04:16:14;45.63;;;7.53;;
63008;SDS011;49099;28.428;-16.488;2023-04-10T04:18:41;50.53;;;8.52;;
63008;SDS011;49099;28.428;-16.488;2023-04-10T04:21:08;47.28;;;8.35;;
63008;SDS011;49099;28.428;-16.488;2023-04-10T04:23:35;47.15;;;8.52;;
63008;SDS011;49099;28.428;-16.488;2023-04-10T04:26:03;45.42;;;7.68;;
63008;SDS011;49099;28.428;-16.488;2023-04-10T04:28:30;47.42;;;8.20;;
63008;SDS011;49099;28.428;-16.488;2023-04-10T04:30:57;52.83;;;8.35;;
63008;SDS011;49099;28.428;-16.488;2023-04-10T04:33:24;52.72;;;8.05;;
63008;SDS011;49099;28.428;-16.488;2023-04-10T04:35:51;44.50;;;7.55;;
63008;SDS011;49099;28.428;-16.488;2023-04-10T04:38:18;47.17;;;8.30;;
63008;SDS011;49099;28.428;-16.488;2023-04-10T04:40:45;42.55;;;7.45;;
63008;SDS011;49099;28.428;-16.488;2023-04-10T04:43:13;40.67;;;7.40;;
63008;SDS011;49099;28.428;-16.488;2023-04-10T04:45:40;44.25;;;7.80;;
63008;SDS011;49099;28.428;-16.488;2023-04-10T04:48:07;41.30;;;7.78;;
63008;SDS011;49099;28.428;-16.488;2023-04-10T04:50:34;47.58;;;7.68;;
63008;SDS011;49099;28.428;-16.488;2023-04-10T04:53:02;48.33;;;9.02;;
63008;SDS011;49099;28.428;-16.488;2023-04-10T04:55:30;45.65;;;8.30;;
63008;SDS011;49099;28.428;-16.488;2023-04-10T04:57:57;49.67;;;9.05;;
63008;SDS011;49099;28.428;-16.488;2023-04-10T05:00:24;43.97;;;8.18;;
63008;SDS011;49099;28.428;-16.488;2023-04-10T05:02:51;49.75;;;8.73;;
63008;SDS011;49099;28.428;-16.488;2023-04-10T05:05:19;36.95;;;7.55;;
63008;SDS011;49099;28.428;-16.488;2023-04-10T05:07:46;35.20;;;7.05;;
63008;SDS011;49099;28.428;-16.488;2023-04-10T05:10:13;44.65;;;8.00;;
63008;SDS011;49099;28.428;-16.488;2023-04-10T05:12:40;38.63;;;7.38;;
63008;SDS011;49099;28.428;-16.488;2023-04-10T05:15:08;59.28;;;8.32;;
63008;SDS011;49099;28.428;-16.488;2023-04-10T05:17:36;50.58;;;8.75;;
63008;SDS011;49099;28.428;-16.488;2023-04-10T05:20:03;50.03;;;7.85;;
63008;SDS011;49099;28.428;-16.488;2023-04-10T05:22:30;49.42;;;8.48;;
63008;SDS011;49099;28.428;-16.488;2023-04-10T05:24:58;53.38;;;8.98;;
63008;SDS011;49099;28.428;-16.488;2023-04-10T05:27:25;50.20;;;8.63;;
63008;SDS011;49099;28.428;-16.488;2023-04-10T05:29:53;53.55;;;8.43;;
63008;SDS011;49099;28.428;-16.488;2023-04-10T05:32:20;44.58;;;7.60;;
63008;SDS011;49099;28.428;-16.488;2023-04-10T05:34:47;48.38;;;8.63;;
63008;SDS011;49099;28.428;-16.488;2023-04-10T05:37:14;48.95;;;7.05;;
63008;SDS011;49099;28.428;-16.488;2023-04-10T05:39:41;61.28;;;9.32;;
63008;SDS011;49099;28.428;-16.488;2023-04-10T05:42:08;56.80;;;9.02;;
63008;SDS011;49099;28.428;-16.488;2023-04-10T05:44:36;59.13;;;9.35;;
63008;SDS011;49099;28.428;-16.488;2023-04-10T05:47:03;56.42;;;9.52;;
63008;SDS011;49099;28.428;-16.488;2023-04-10T05:49:30;58.58;;;9.35;;
63008;SDS011;49099;28.428;-16.488;2023-04-10T05:51:57;56.92;;;8.43;;
63008;SDS011;49099;28.428;-16.488;2023-04-10T05:54:24;74.50;;;10.73;;
63008;SDS011;49099;28.428;-16.488;2023-04-10T05:56:51;60.67;;;9.52;;
63008;SDS011;49099;28.428;-16.488;2023-04-10T05:59:19;63.50;;;9.80;;
63008;SDS011;49099;28.428;-16.488;2023-04-10T06:01:46;60.22;;;9.07;;
63008;SDS011;49099;28.428;-16.488;2023-04-10T06:04:13;74.53;;;10.07;;
63008;SDS011;49099;28.428;-16.488;2023-04-10T06:06:41;56.00;;;9.48;;
63008;SDS011;49099;28.428;-16.488;2023-04-10T06:09:08;68.28;;;10.40;;
63008;SDS011;49099;28.428;-16.488;2023-04-10T06:11:35;65.47;;;10.07;;
63008;SDS011;49099;28.428;-16.488;2023-04-10T06:14:02;67.32;;;11.43;;
63008;SDS011;49099;28.428;-16.488;2023-04-10T06:16:29;56.83;;;9.85;;
63008;SDS011;49099;28.428;-16.488;2023-04-10T06:18:57;57.00;;;10.13;;
63008;SDS011;49099;28.428;-16.488;2023-04-10T06:21:24;82.88;;;11.18;;
63008;SDS011;49099;28.428;-16.488;2023-04-10T06:23:51;62.58;;;9.77;;
63008;SDS011;49099;28.428;-16.488;2023-04-10T06:26:19;68.80;;;11.00;;
63008;SDS011;49099;28.428;-16.488;2023-04-10T06:28:47;64.78;;;10.25;;
63008;SDS011;49099;28.428;-16.488;2023-04-10T06:31:14;64.22;;;10.15;;
63008;SDS011;49099;28.428;-16.488;2023-04-10T06:33:41;65.35;;;9.90;;
63008;SDS011;49099;28.428;-16.488;2023-04-10T06:36:08;70.63;;;11.25;;
63008;SDS011;49099;28.428;-16.488;2023-04-10T06:38:36;68.88;;;10.88;;
63008;SDS011;49099;28.428;-16.488;2023-04-10T06:41:04;61.05;;;10.25;;
63008;SDS011;49099;28.428;-16.488;2023-04-10T06:43:34;59.78;;;10.70;;
63008;SDS011;49099;28.428;-16.488;2023-04-10T06:46:03;54.30;;;9.05;;
63008;SDS011;49099;28.428;-16.488;2023-04-10T06:48:31;47.17;;;9.57;;
63008;SDS011;49099;28.428;-16.488;2023-04-10T06:50:58;70.68;;;11.15;;
63008;SDS011;49099;28.428;-16.488;2023-04-10T06:53:26;67.80;;;10.70;;
63008;SDS011;49099;28.428;-16.488;2023-04-10T06:55:53;74.88;;;11.40;;
63008;SDS011;49099;28.428;-16.488;2023-04-10T06:58:20;67.22;;;11.05;;
63008;SDS011;49099;28.428;-16.488;2023-04-10T07:00:48;68.45;;;11.40;;
63008;SDS011;49099;28.428;-16.488;2023-04-10T07:03:15;61.05;;;10.70;;
63008;SDS011;49099;28.428;-16.488;2023-04-10T07:05:42;77.05;;;12.23;;
63008;SDS011;49099;28.428;-16.488;2023-04-10T07:08:09;65.25;;;11.88;;
63008;SDS011;49099;28.428;-16.488;2023-04-10T07:10:36;76.75;;;12.68;;
63008;SDS011;49099;28.428;-16.488;2023-04-10T07:13:04;64.95;;;10.77;;
63008;SDS011;49099;28.428;-16.488;2023-04-10T07:15:31;71.25;;;11.93;;
63008;SDS011;49099;28.428;-16.488;2023-04-10T07:17:58;74.88;;;12.07;;
63008;SDS011;49099;28.428;-16.488;2023-04-10T07:20:25;79.60;;;11.77;;
63008;SDS011;49099;28.428;-16.488;2023-04-10T07:22:53;59.40;;;10.25;;
63008;SDS011;49099;28.428;-16.488;2023-04-10T07:25:20;66.53;;;10.80;;
63008;SDS011;49099;28.428;-16.488;2023-04-10T07:27:48;64.05;;;10.40;;
63008;SDS011;49099;28.428;-16.488;2023-04-10T07:30:15;65.55;;;11.35;;
63008;SDS011;49099;28.428;-16.488;2023-04-10T07:32:42;56.75;;;10.10;;
63008;SDS011;49099;28.428;-16.488;2023-04-10T07:35:11;66.35;;;10.90;;
63008;SDS011;49099;28.428;-16.488;2023-04-10T07:37:38;62.47;;;10.43;;
63008;SDS011;49099;28.428;-16.488;2023-04-10T07:40:06;75.07;;;12.30;;
63008;SDS011;49099;28.428;-16.488;2023-04-10T07:42:33;51.28;;;9.13;;
63008;SDS011;49099;28.428;-16.488;2023-04-10T07:45:01;66.32;;;11.95;;
63008;SDS011;49099;28.428;-16.488;2023-04-10T07:47:28;61.30;;;11.50;;
63008;SDS011;49099;28.428;-16.488;2023-04-10T07:49:55;46.65;;;9.45;;
63008;SDS011;49099;28.428;-16.488;2023-04-10T07:52:22;65.97;;;11.45;;
63008;SDS011;49099;28.428;-16.488;2023-04-10T07:54:49;67.00;;;11.60;;
63008;SDS011;49099;28.428;-16.488;2023-04-10T07:57:17;80.40;;;11.93;;
63008;SDS011;49099;28.428;-16.488;2023-04-10T07:59:44;80.68;;;12.63;;
63008;SDS011;49099;28.428;-16.488;2023-04-10T08:02:11;80.78;;;12.23;;
63008;SDS011;49099;28.428;-16.488;2023-04-10T08:04:38;71.05;;;10.88;;
63008;SDS011;49099;28.428;-16.488;2023-04-10T08:07:06;64.75;;;11.13;;
63008;SDS011;49099;28.428;-16.488;2023-04-10T08:09:33;69.72;;;10.98;;
63008;SDS011;49099;28.428;-16.488;2023-04-10T08:12:00;66.50;;;11.25;;
63008;SDS011;49099;28.428;-16.488;2023-04-10T08:14:29;64.45;;;11.10;;
63008;SDS011;49099;28.428;-16.488;2023-04-10T08:16:56;56.90;;;10.40;;
63008;SDS011;49099;28.428;-16.488;2023-04-10T08:19:23;64.13;;;10.60;;
63008;SDS011;49099;28.428;-16.488;2023-04-10T08:21:50;67.30;;;11.75;;
63008;SDS011;49099;28.428;-16.488;2023-04-10T08:24:17;60.13;;;10.88;;
63008;SDS011;49099;28.428;-16.488;2023-04-10T08:26:47;68.75;;;11.05;;
63008;SDS011;49099;28.428;-16.488;2023-04-10T08:29:14;51.42;;;9.68;;
63008;SDS011;49099;28.428;-16.488;2023-04-10T08:31:41;64.68;;;11.02;;
63008;SDS011;49099;28.428;-16.488;2023-04-10T08:34:08;52.15;;;10.05;;
63008;SDS011;49099;28.428;-16.488;2023-04-10T08:36:35;61.00;;;11.23;;
63008;SDS011;49099;28.428;-16.488;2023-04-10T08:39:03;74.47;;;11.50;;
63008;SDS011;49099;28.428;-16.488;2023-04-10T08:41:30;86.45;;;13.00;;
63008;SDS011;49099;28.428;-16.488;2023-04-10T08:43:57;73.00;;;12.30;;
63008;SDS011;49099;28.428;-16.488;2023-04-10T08:46:24;74.43;;;11.75;;
63008;SDS011;49099;28.428;-16.488;2023-04-10T08:48:52;58.33;;;10.45;;
63008;SDS011;49099;28.428;-16.488;2023-04-10T08:51:42;69.38;;;12.63;;
63008;SDS011;49099;28.428;-16.488;2023-04-10T08:54:25;69.32;;;10.65;;
63008;SDS011;49099;28.428;-16.488;2023-04-10T08:56:54;72.28;;;11.85;;
63008;SDS011;49099;28.428;-16.488;2023-04-10T08:59:24;79.28;;;13.93;;
63008;SDS011;49099;28.428;-16.488;2023-04-10T09:01:53;78.90;;;11.70;;
63008;SDS011;49099;28.428;-16.488;2023-04-10T09:04:20;70.70;;;12.75;;
63008;SDS011;49099;28.428;-16.488;2023-04-10T09:06:48;74.20;;;12.55;;
63008;SDS011;49099;28.428;-16.488;2023-04-10T09:09:15;68.55;;;12.45;;
63008;SDS011;49099;28.428;-16.488;2023-04-10T09:12:04;72.28;;;12.75;;
63008;SDS011;49099;28.428;-16.488;2023-04-10T09:14:32;74.20;;;11.85;;
63008;SDS011;49099;28.428;-16.488;2023-04-10T09:17:17;75.93;;;12.20;;
63008;SDS011;49099;28.428;-16.488;2023-04-10T09:19:48;71.55;;;12.00;;
63008;SDS011;49099;28.428;-16.488;2023-04-10T09:22:29;65.60;;;12.07;;
63008;SDS011;49099;28.428;-16.488;2023-04-10T09:24:58;80.28;;;12.88;;
63008;SDS011;49099;28.428;-16.488;2023-04-10T09:27:30;65.88;;;12.13;;
63008;SDS011;49099;28.428;-16.488;2023-04-10T09:30:01;66.85;;;12.18;;
63008;SDS011;49099;28.428;-16.488;2023-04-10T09:32:37;63.40;;;11.98;;
63008;SDS011;49099;28.428;-16.488;2023-04-10T09:35:09;77.72;;;12.52;;
63008;SDS011;49099;28.428;-16.488;2023-04-10T09:37:39;78.72;;;13.77;;
63008;SDS011;49099;28.428;-16.488;2023-04-10T09:40:21;67.68;;;11.93;;
63008;SDS011;49099;28.428;-16.488;2023-04-10T09:42:52;61.08;;;11.20;;
63008;SDS011;49099;28.428;-16.488;2023-04-10T09:45:21;66.40;;;12.82;;
63008;SDS011;49099;28.428;-16.488;2023-04-10T09:48:01;72.30;;;12.10;;
63008;SDS011;49099;28.428;-16.488;2023-04-10T09:50:36;101.00;;;13.88;;
63008;SDS011;49099;28.428;-16.488;2023-04-10T09:53:06;67.93;;;11.45;;
63008;SDS011;49099;28.428;-16.488;2023-04-10T09:55:34;69.75;;;12.02;;
63008;SDS011;49099;28.428;-16.488;2023-04-10T09:58:03;74.78;;;12.85;;
63008;SDS011;49099;28.428;-16.488;2023-04-10T10:00:40;73.10;;;12.55;;
63008;SDS011;49099;28.428;-16.488;2023-04-10T10:03:13;60.67;;;11.23;;
63008;SDS011;49099;28.428;-16.488;2023-04-10T10:05:42;76.88;;;12.43;;
63008;SDS011;49099;28.428;-16.488;2023-04-10T10:08:12;88.82;;;13.45;;
63008;SDS011;49099;28.428;-16.488;2023-04-10T10:13:20;76.35;;;11.85;;
63008;SDS011;49099;28.428;-16.488;2023-04-10T10:16:03;73.83;;;12.40;;
63008;SDS011;49099;28.428;-16.488;2023-04-10T10:18:56;69.20;;;11.43;;
63008;SDS011;49099;28.428;-16.488;2023-04-10T10:21:25;62.95;;;11.30;;
63008;SDS011;49099;28.428;-16.488;2023-04-10T10:23:55;72.25;;;11.57;;
63008;SDS011;49099;28.428;-16.488;2023-04-10T10:26:25;76.35;;;11.93;;
63008;SDS011;49099;28.428;-16.488;2023-04-10T10:28:55;87.13;;;13.10;;
63008;SDS011;49099;28.428;-16.488;2023-04-10T10:31:24;64.75;;;11.73;;
63008;SDS011;49099;28.428;-16.488;2023-04-10T10:33:51;77.70;;;12.07;;
63008;SDS011;49099;28.428;-16.488;2023-04-10T10:36:19;74.00;;;12.65;;
63008;SDS011;49099;28.428;-16.488;2023-04-10T10:39:07;73.60;;;11.77;;
63008;SDS011;49099;28.428;-16.488;2023-04-10T10:42:29;64.78;;;10.98;;
63008;SDS011;49099;28.428;-16.488;2023-04-10T10:44:32;68.35;;;11.68;;
63008;SDS011;49099;28.428;-16.488;2023-04-10T10:47:06;80.20;;;13.15;;
63008;SDS011;49099;28.428;-16.488;2023-04-10T10:49:52;76.22;;;11.73;;
63008;SDS011;49099;28.428;-16.488;2023-04-10T10:52:43;74.20;;;12.18;;
63008;SDS011;49099;28.428;-16.488;2023-04-10T10:57:51;79.18;;;12.70;;
63008;SDS011;49099;28.428;-16.488;2023-04-10T11:01:04;75.78;;;11.95;;
63008;SDS011;49099;28.428;-16.488;2023-04-10T11:05:49;83.90;;;13.57;;
63008;SDS011;49099;28.428;-16.488;2023-04-10T11:08:25;81.82;;;13.65;;
63008;SDS011;49099;28.428;-16.488;2023-04-10T11:11:05;82.20;;;12.98;;
63008;SDS011;49099;28.428;-16.488;2023-04-10T11:13:34;67.80;;;12.10;;
63008;SDS011;49099;28.428;-16.488;2023-04-10T11:16:04;73.93;;;11.88;;
63008;SDS011;49099;28.428;-16.488;2023-04-10T11:19:15;70.60;;;11.57;;
63008;SDS011;49099;28.428;-16.488;2023-04-10T11:30:33;63.22;;;12.55;;
63008;SDS011;49099;28.428;-16.488;2023-04-10T11:33:02;73.20;;;11.27;;
63008;SDS011;49099;28.428;-16.488;2023-04-10T11:35:31;73.72;;;12.43;;
63008;SDS011;49099;28.428;-16.488;2023-04-10T11:38:08;65.82;;;11.55;;
63008;SDS011;49099;28.428;-16.488;2023-04-10T11:40:53;79.28;;;12.82;;
63008;SDS011;49099;28.428;-16.488;2023-04-10T11:43:25;63.38;;;10.60;;
63008;SDS011;49099;28.428;-16.488;2023-04-10T11:45:59;83.85;;;12.55;;
63008;SDS011;49099;28.428;-16.488;2023-04-10T11:48:27;73.88;;;12.95;;
63008;SDS011;49099;28.428;-16.488;2023-04-10T11:50:55;69.45;;;11.85;;
63008;SDS011;49099;28.428;-16.488;2023-04-10T11:53:23;81.35;;;13.32;;
63008;SDS011;49099;28.428;-16.488;2023-04-10T11:55:52;75.60;;;12.00;;
63008;SDS011;49099;28.428;-16.488;2023-04-10T11:58:24;69.32;;;13.15;;
63008;SDS011;49099;28.428;-16.488;2023-04-10T12:01:00;77.57;;;12.93;;
63008;SDS011;49099;28.428;-16.488;2023-04-10T12:03:36;77.70;;;11.52;;
63008;SDS011;49099;28.428;-16.488;2023-04-10T12:06:11;83.55;;;13.25;;
63008;SDS011;49099;28.428;-16.488;2023-04-10T12:08:44;82.82;;;13.32;;
63008;SDS011;49099;28.428;-16.488;2023-04-10T12:11:19;74.13;;;12.65;;
63008;SDS011;49099;28.428;-16.488;2023-04-10T12:13:55;75.97;;;12.27;;
63008;SDS011;49099;28.428;-16.488;2023-04-10T12:16:23;70.57;;;12.00;;
63008;SDS011;49099;28.428;-16.488;2023-04-10T12:18:52;83.60;;;12.98;;
63008;SDS011;49099;28.428;-16.488;2023-04-10T12:21:19;76.22;;;11.13;;
63008;SDS011;49099;28.428;-16.488;2023-04-10T12:23:47;79.05;;;13.13;;
63008;SDS011;49099;28.428;-16.488;2023-04-10T12:26:15;81.70;;;13.48;;
63008;SDS011;49099;28.428;-16.488;2023-04-10T12:28:50;70.60;;;12.68;;
63008;SDS011;49099;28.428;-16.488;2023-04-10T12:31:34;67.63;;;12.23;;
63008;SDS011;49099;28.428;-16.488;2023-04-10T12:34:02;69.00;;;12.38;;
63008;SDS011;49099;28.428;-16.488;2023-04-10T12:36:31;83.30;;;12.27;;
63008;SDS011;49099;28.428;-16.488;2023-04-10T12:39:03;85.07;;;12.63;;
63008;SDS011;49099;28.428;-16.488;2023-04-10T12:41:32;82.72;;;12.18;;
63008;SDS011;49099;28.428;-16.488;2023-04-10T12:44:10;83.45;;;12.73;;
63008;SDS011;49099;28.428;-16.488;2023-04-10T12:46:39;63.72;;;10.98;;
63008;SDS011;49099;28.428;-16.488;2023-04-10T12:49:12;77.03;;;12.95;;
63008;SDS011;49099;28.428;-16.488;2023-04-10T12:51:44;71.68;;;12.02;;
63008;SDS011;49099;28.428;-16.488;2023-04-10T12:57:24;84.13;;;14.23;;
63008;SDS011;49099;28.428;-16.488;2023-04-10T12:59:52;80.10;;;12.43;;
63008;SDS011;49099;28.428;-16.488;2023-04-10T13:02:20;77.78;;;12.55;;
63008;SDS011;49099;28.428;-16.488;2023-04-10T13:04:47;81.10;;;13.02;;
63008;SDS011;49099;28.428;-16.488;2023-04-10T13:07:14;72.95;;;12.05;;
63008;SDS011;49099;28.428;-16.488;2023-04-10T13:09:41;92.32;;;13.88;;
63008;SDS011;49099;28.428;-16.488;2023-04-10T13:12:08;75.78;;;13.32;;
63008;SDS011;49099;28.428;-16.488;2023-04-10T13:14:36;81.43;;;12.43;;
63008;SDS011;49099;28.428;-16.488;2023-04-10T13:17:03;75.60;;;12.95;;
63008;SDS011;49099;28.428;-16.488;2023-04-10T13:19:30;77.75;;;11.52;;
63008;SDS011;49099;28.428;-16.488;2023-04-10T13:21:57;78.63;;;13.30;;
63008;SDS011;49099;28.428;-16.488;2023-04-10T13:24:26;85.45;;;12.85;;
63008;SDS011;49099;28.428;-16.488;2023-04-10T13:26:53;75.13;;;13.40;;
63008;SDS011;49099;28.428;-16.488;2023-04-10T13:29:22;88.35;;;13.77;;
63008;SDS011;49099;28.428;-16.488;2023-04-10T13:31:50;64.05;;;12.55;;
63008;SDS011;49099;28.428;-16.488;2023-04-10T13:34:17;67.43;;;12.07;;
63008;SDS011;49099;28.428;-16.488;2023-04-10T13:36:44;78.03;;;13.65;;
63008;SDS011;49099;28.428;-16.488;2023-04-10T13:39:11;78.05;;;13.23;;
63008;SDS011;49099;28.428;-16.488;2023-04-10T13:41:39;83.03;;;14.05;;
63008;SDS011;49099;28.428;-16.488;2023-04-10T13:44:06;84.15;;;13.43;;
63008;SDS011;49099;28.428;-16.488;2023-04-10T13:46:33;78.18;;;13.30;;
63008;SDS011;49099;28.428;-16.488;2023-04-10T13:49:01;79.50;;;13.73;;
63008;SDS011;49099;28.428;-16.488;2023-04-10T13:51:28;71.72;;;12.93;;
63008;SDS011;49099;28.428;-16.488;2023-04-10T13:53:55;83.13;;;14.38;;
63008;SDS011;49099;28.428;-16.488;2023-04-10T13:56:22;75.75;;;13.60;;
63008;SDS011;49099;28.428;-16.488;2023-04-10T13:58:49;92.13;;;15.02;;
63008;SDS011;49099;28.428;-16.488;2023-04-10T14:01:17;89.07;;;13.68;;
63008;SDS011;49099;28.428;-16.488;2023-04-10T14:03:44;75.60;;;12.68;;
63008;SDS011;49099;28.428;-16.488;2023-04-10T14:06:11;77.85;;;13.82;;
63008;SDS011;49099;28.428;-16.488;2023-04-10T14:08:39;79.47;;;14.80;;
63008;SDS011;49099;28.428;-16.488;2023-04-10T14:11:06;87.18;;;14.75;;
63008;SDS011;49099;28.428;-16.488;2023-04-10T14:13:35;106.90;;;16.40;;
63008;SDS011;49099;28.428;-16.488;2023-04-10T14:16:02;90.65;;;15.55;;
63008;SDS011;49099;28.428;-16.488;2023-04-10T14:18:29;94.03;;;14.48;;
63008;SDS011;49099;28.428;-16.488;2023-04-10T14:20:57;96.20;;;16.08;;
63008;SDS011;49099;28.428;-16.488;2023-04-10T14:23:24;72.50;;;13.60;;
63008;SDS011;49099;28.428;-16.488;2023-04-10T14:25:51;91.93;;;15.30;;
63008;SDS011;49099;28.428;-16.488;2023-04-10T14:28:18;83.70;;;15.30;;
63008;SDS011;49099;28.428;-16.488;2023-04-10T14:30:46;97.57;;;17.05;;
63008;SDS011;49099;28.428;-16.488;2023-04-10T14:33:16;100.28;;;16.20;;
63008;SDS011;49099;28.428;-16.488;2023-04-10T14:35:45;85.25;;;14.52;;
63008;SDS011;49099;28.428;-16.488;2023-04-10T14:38:13;84.18;;;14.75;;
63008;SDS011;49099;28.428;-16.488;2023-04-10T14:40:41;82.05;;;14.25;;
63008;SDS011;49099;28.428;-16.488;2023-04-10T14:43:08;93.57;;;15.20;;